sensor_id;sensor_type;location;lat;lon;timestamp;P1;durP1;ratioP1;P2;durP2;ratioP2
19617;SDS011;9956;51.006;13.670;2023-04-25T00:00:44;4.68;;;3.50;;
19617;SDS011;9956;51.006;13.670;2023-04-25T00:05:45;5.68;;;3.50;;
19617;SDS011;9956;51.006;13.670;2023-04-25T00:10:46;4.53;;;2.83;;
19617;SDS011;9956;51.006;13.670;2023-04-25T00:15:46;5.07;;;3.25;;
19617;SDS011;9956;51.006;13.670;2023-04-25T00:20:48;4.22;;;3.60;;
19617;SDS011;9956;51.006;13.670;2023-04-25T00:25:49;5.32;;;3.53;;
19617;SDS011;9956;51.006;13.670;2023-04-25T00:30:49;4.25;;;3.50;;
19617;SDS011;9956;51.006;13.670;2023-04-25T00:35:50;4.22;;;3.80;;
19617;SDS011;9956;51.006;13.670;2023-04-25T00:40:50;4.40;;;4.00;;
19617;SDS011;9956;51.006;13.670;2023-04-25T00:45:51;6.22;;;4.00;;
19617;SDS011;9956;51.006;13.670;2023-04-25T00:50:53;5.65;;;4.05;;
19617;SDS011;9956;51.006;13.670;2023-04-25T00:55:54;5.20;;;4.22;;
19617;SDS011;9956;51.006;13.670;2023-04-25T01:00:55;4.95;;;4.45;;
19617;SDS011;9956;51.006;13.670;2023-04-25T01:05:56;8.45;;;5.30;;
19617;SDS011;9956;51.006;13.670;2023-04-25T01:10:57;6.47;;;5.70;;
19617;SDS011;9956;51.006;13.670;2023-04-25T01:15:58;6.10;;;4.43;;
19617;SDS011;9956;51.006;13.670;2023-04-25T01:21:08;5.82;;;5.07;;
19617;SDS011;9956;51.006;13.670;2023-04-25T01:26:11;7.68;;;4.72;;
19617;SDS011;9956;51.006;13.670;2023-04-25T01:31:12;5.68;;;4.78;;
19617;SDS011;9956;51.006;13.670;2023-04-25T01:36:13;6.53;;;4.65;;
19617;SDS011;9956;51.006;13.670;2023-04-25T01:41:15;6.65;;;4.55;;
19617;SDS011;9956;51.006;13.670;2023-04-25T01:46:17;5.85;;;5.10;;
19617;SDS011;9956;51.006;13.670;2023-04-25T01:51:17;5.47;;;4.55;;
19617;SDS011;9956;51.006;13.670;2023-04-25T01:56:18;5.03;;;4.32;;
19617;SDS011;9956;51.006;13.670;2023-04-25T02:01:18;5.65;;;4.32;;
19617;SDS011;9956;51.006;13.670;2023-04-25T02:06:29;8.95;;;4.63;;
19617;SDS011;9956;51.006;13.670;2023-04-25T02:11:31;7.40;;;4.75;;
19617;SDS011;9956;51.006;13.670;2023-04-25T02:16:58;6.93;;;4.97;;
19617;SDS011;9956;51.006;13.670;2023-04-25T02:21:59;6.55;;;5.78;;
19617;SDS011;9956;51.006;13.670;2023-04-25T02:26:59;8.48;;;5.60;;
19617;SDS011;9956;51.006;13.670;2023-04-25T02:32:00;6.53;;;5.43;;
19617;SDS011;9956;51.006;13.670;2023-04-25T02:37:00;8.45;;;5.60;;
19617;SDS011;9956;51.006;13.670;2023-04-25T02:42:01;7.05;;;5.88;;
19617;SDS011;9956;51.006;13.670;2023-04-25T02:47:03;7.07;;;5.20;;
19617;SDS011;9956;51.006;13.670;2023-04-25T02:52:04;5.63;;;5.00;;
19617;SDS011;9956;51.006;13.670;2023-04-25T02:57:05;6.38;;;4.95;;
19617;SDS011;9956;51.006;13.670;2023-04-25T03:02:10;7.10;;;6.40;;
19617;SDS011;9956;51.006;13.670;2023-04-25T03:07:11;7.38;;;5.88;;
19617;SDS011;9956;51.006;13.670;2023-04-25T03:12:11;7.93;;;6.32;;
19617;SDS011;9956;51.006;13.670;2023-04-25T03:17:12;9.55;;;6.40;;
19617;SDS011;9956;51.006;13.670;2023-04-25T03:22:12;7.80;;;5.50;;
19617;SDS011;9956;51.006;13.670;2023-04-25T03:27:14;7.30;;;6.60;;
19617;SDS011;9956;51.006;13.670;2023-04-25T03:32:14;10.60;;;7.53;;
19617;SDS011;9956;51.006;13.670;2023-04-25T03:37:15;10.18;;;7.05;;
19617;SDS011;9956;51.006;13.670;2023-04-25T03:42:15;8.80;;;7.60;;
19617;SDS011;9956;51.006;13.670;2023-04-25T03:47:18;9.13;;;7.93;;
19617;SDS011;9956;51.006;13.670;2023-04-25T03:52:20;10.57;;;7.28;;
19617;SDS011;9956;51.006;13.670;2023-04-25T03:57:22;8.57;;;6.68;;
19617;SDS011;9956;51.006;13.670;2023-04-25T04:02:22;9.25;;;7.55;;
19617;SDS011;9956;51.006;13.670;2023-04-25T04:07:26;12.65;;;8.00;;
19617;SDS011;9956;51.006;13.670;2023-04-25T04:12:31;8.75;;;7.30;;
19617;SDS011;9956;51.006;13.670;2023-04-25T04:17:31;8.77;;;7.20;;
19617;SDS011;9956;51.006;13.670;2023-04-25T04:22:32;9.98;;;7.45;;
19617;SDS011;9956;51.006;13.670;2023-04-25T04:27:38;10.93;;;7.57;;
19617;SDS011;9956;51.006;13.670;2023-04-25T04:32:58;9.43;;;7.07;;
19617;SDS011;9956;51.006;13.670;2023-04-25T04:38:01;9.02;;;7.65;;
19617;SDS011;9956;51.006;13.670;2023-04-25T04:43:06;9.90;;;7.15;;
19617;SDS011;9956;51.006;13.670;2023-04-25T04:48:36;11.02;;;8.48;;
19617;SDS011;9956;51.006;13.670;2023-04-25T04:53:58;8.30;;;6.93;;
19617;SDS011;9956;51.006;13.670;2023-04-25T04:59:25;10.57;;;7.43;;
19617;SDS011;9956;51.006;13.670;2023-04-25T05:05:01;8.63;;;7.28;;
19617;SDS011;9956;51.006;13.670;2023-04-25T05:10:25;9.70;;;7.72;;
19617;SDS011;9956;51.006;13.670;2023-04-25T05:15:52;8.95;;;6.80;;
19617;SDS011;9956;51.006;13.670;2023-04-25T05:21:02;9.63;;;6.53;;
19617;SDS011;9956;51.006;13.670;2023-04-25T05:26:31;9.43;;;7.65;;
19617;SDS011;9956;51.006;13.670;2023-04-25T05:31:55;9.23;;;5.85;;
19617;SDS011;9956;51.006;13.670;2023-04-25T05:36:56;10.80;;;6.50;;
19617;SDS011;9956;51.006;13.670;2023-04-25T05:41:56;7.93;;;6.15;;
19617;SDS011;9956;51.006;13.670;2023-04-25T05:47:35;8.30;;;5.97;;
19617;SDS011;9956;51.006;13.670;2023-04-25T05:52:51;8.15;;;5.95;;
19617;SDS011;9956;51.006;13.670;2023-04-25T05:58:01;7.57;;;6.00;;
19617;SDS011;9956;51.006;13.670;2023-04-25T06:03:02;8.48;;;5.43;;
19617;SDS011;9956;51.006;13.670;2023-04-25T06:08:02;8.30;;;5.43;;
19617;SDS011;9956;51.006;13.670;2023-04-25T06:13:03;11.80;;;6.25;;
19617;SDS011;9956;51.006;13.670;2023-04-25T06:18:06;9.80;;;6.35;;
19617;SDS011;9956;51.006;13.670;2023-04-25T06:23:08;9.60;;;5.53;;
19617;SDS011;9956;51.006;13.670;2023-04-25T06:28:19;7.25;;;5.93;;
19617;SDS011;9956;51.006;13.670;2023-04-25T06:33:22;7.50;;;6.75;;
19617;SDS011;9956;51.006;13.670;2023-04-25T06:38:24;10.70;;;7.03;;
19617;SDS011;9956;51.006;13.670;2023-04-25T06:43:26;10.27;;;6.10;;
19617;SDS011;9956;51.006;13.670;2023-04-25T06:48:39;9.73;;;6.85;;
19617;SDS011;9956;51.006;13.670;2023-04-25T06:53:40;8.52;;;5.50;;
19617;SDS011;9956;51.006;13.670;2023-04-25T06:58:45;10.60;;;6.82;;
19617;SDS011;9956;51.006;13.670;2023-04-25T07:03:50;9.32;;;6.50;;
19617;SDS011;9956;51.006;13.670;2023-04-25T07:08:53;8.93;;;6.85;;
19617;SDS011;9956;51.006;13.670;2023-04-25T07:13:55;10.95;;;7.20;;
19617;SDS011;9956;51.006;13.670;2023-04-25T07:18:55;10.77;;;6.15;;
19617;SDS011;9956;51.006;13.670;2023-04-25T07:23:56;9.32;;;5.50;;
19617;SDS011;9956;51.006;13.670;2023-04-25T07:29:02;7.20;;;5.40;;
19617;SDS011;9956;51.006;13.670;2023-04-25T07:34:02;5.35;;;4.10;;
19617;SDS011;9956;51.006;13.670;2023-04-25T07:39:03;7.10;;;3.92;;
19617;SDS011;9956;51.006;13.670;2023-04-25T07:44:04;5.70;;;3.92;;
19617;SDS011;9956;51.006;13.670;2023-04-25T07:49:06;5.65;;;3.40;;
19617;SDS011;9956;51.006;13.670;2023-04-25T07:54:07;4.43;;;3.45;;
19617;SDS011;9956;51.006;13.670;2023-04-25T07:59:11;6.85;;;3.53;;
19617;SDS011;9956;51.006;13.670;2023-04-25T08:04:13;4.47;;;3.08;;
19617;SDS011;9956;51.006;13.670;2023-04-25T08:09:31;5.30;;;3.20;;
19617;SDS011;9956;51.006;13.670;2023-04-25T08:14:35;3.78;;;2.28;;
19617;SDS011;9956;51.006;13.670;2023-04-25T08:19:37;4.35;;;2.85;;
19617;SDS011;9956;51.006;13.670;2023-04-25T08:24:38;3.63;;;2.40;;
19617;SDS011;9956;51.006;13.670;2023-04-25T08:29:39;3.75;;;2.35;;
19617;SDS011;9956;51.006;13.670;2023-04-25T08:34:40;3.22;;;2.58;;
19617;SDS011;9956;51.006;13.670;2023-04-25T08:39:43;3.17;;;2.85;;
19617;SDS011;9956;51.006;13.670;2023-04-25T08:44:54;5.60;;;3.05;;
19617;SDS011;9956;51.006;13.670;2023-04-25T08:49:58;7.00;;;3.25;;
19617;SDS011;9956;51.006;13.670;2023-04-25T08:55:00;4.63;;;4.00;;
19617;SDS011;9956;51.006;13.670;2023-04-25T09:00:02;6.57;;;3.47;;
19617;SDS011;9956;51.006;13.670;2023-04-25T09:05:06;7.20;;;4.10;;
19617;SDS011;9956;51.006;13.670;2023-04-25T09:10:09;5.10;;;4.07;;
19617;SDS011;9956;51.006;13.670;2023-04-25T09:15:12;9.50;;;5.30;;
19617;SDS011;9956;51.006;13.670;2023-04-25T09:20:40;8.65;;;5.53;;
19617;SDS011;9956;51.006;13.670;2023-04-25T09:25:42;6.63;;;3.58;;
19617;SDS011;9956;51.006;13.670;2023-04-25T09:30:44;4.88;;;4.43;;
19617;SDS011;9956;51.006;13.670;2023-04-25T09:36:09;7.78;;;4.70;;
19617;SDS011;9956;51.006;13.670;2023-04-25T09:41:29;9.43;;;5.20;;
19617;SDS011;9956;51.006;13.670;2023-04-25T09:46:34;6.68;;;5.18;;
19617;SDS011;9956;51.006;13.670;2023-04-25T09:51:37;10.52;;;5.40;;
19617;SDS011;9956;51.006;13.670;2023-04-25T09:56:40;7.20;;;4.70;;
19617;SDS011;9956;51.006;13.670;2023-04-25T10:01:52;23.30;;;6.32;;
19617;SDS011;9956;51.006;13.670;2023-04-25T10:07:05;5.57;;;4.88;;
19617;SDS011;9956;51.006;13.670;2023-04-25T10:12:06;5.97;;;5.38;;
19617;SDS011;9956;51.006;13.670;2023-04-25T10:17:08;5.57;;;4.95;;
19617;SDS011;9956;51.006;13.670;2023-04-25T10:22:11;4.82;;;3.58;;
19617;SDS011;9956;51.006;13.670;2023-04-25T10:27:15;4.60;;;4.18;;
19617;SDS011;9956;51.006;13.670;2023-04-25T10:32:15;7.45;;;5.97;;
19617;SDS011;9956;51.006;13.670;2023-04-25T10:37:16;7.85;;;5.15;;
19617;SDS011;9956;51.006;13.670;2023-04-25T10:42:19;7.13;;;5.82;;
19617;SDS011;9956;51.006;13.670;2023-04-25T10:47:20;8.35;;;5.53;;
19617;SDS011;9956;51.006;13.670;2023-04-25T10:52:35;6.32;;;5.38;;
19617;SDS011;9956;51.006;13.670;2023-04-25T10:57:44;12.88;;;7.00;;
19617;SDS011;9956;51.006;13.670;2023-04-25T11:02:53;9.60;;;7.43;;
19617;SDS011;9956;51.006;13.670;2023-04-25T11:07:59;8.65;;;7.75;;
19617;SDS011;9956;51.006;13.670;2023-04-25T11:12:59;8.20;;;7.40;;
19617;SDS011;9956;51.006;13.670;2023-04-25T11:18:00;11.52;;;7.28;;
19617;SDS011;9956;51.006;13.670;2023-04-25T11:23:00;9.45;;;5.90;;
19617;SDS011;9956;51.006;13.670;2023-04-25T11:28:01;12.35;;;4.80;;
19617;SDS011;9956;51.006;13.670;2023-04-25T11:33:01;7.57;;;3.97;;
19617;SDS011;9956;51.006;13.670;2023-04-25T11:38:03;5.28;;;3.13;;
19617;SDS011;9956;51.006;13.670;2023-04-25T11:43:04;5.35;;;3.92;;
19617;SDS011;9956;51.006;13.670;2023-04-25T11:48:04;7.53;;;3.50;;
19617;SDS011;9956;51.006;13.670;2023-04-25T11:53:05;7.20;;;3.13;;
19617;SDS011;9956;51.006;13.670;2023-04-25T11:58:06;5.18;;;3.72;;
19617;SDS011;9956;51.006;13.670;2023-04-25T12:03:08;7.53;;;4.10;;
19617;SDS011;9956;51.006;13.670;2023-04-25T12:08:10;6.78;;;3.95;;
19617;SDS011;9956;51.006;13.670;2023-04-25T12:13:18;7.95;;;3.95;;
19617;SDS011;9956;51.006;13.670;2023-04-25T12:18:37;8.13;;;4.32;;
19617;SDS011;9956;51.006;13.670;2023-04-25T12:23:39;7.50;;;3.70;;
19617;SDS011;9956;51.006;13.670;2023-04-25T12:28:44;10.20;;;4.05;;
19617;SDS011;9956;51.006;13.670;2023-04-25T12:33:50;8.30;;;3.55;;
19617;SDS011;9956;51.006;13.670;2023-04-25T12:38:50;8.52;;;2.85;;
19617;SDS011;9956;51.006;13.670;2023-04-25T12:43:51;8.55;;;4.82;;
19617;SDS011;9956;51.006;13.670;2023-04-25T12:48:52;9.55;;;4.63;;
19617;SDS011;9956;51.006;13.670;2023-04-25T12:53:53;10.98;;;5.05;;
19617;SDS011;9956;51.006;13.670;2023-04-25T12:58:53;8.10;;;4.35;;
19617;SDS011;9956;51.006;13.670;2023-04-25T13:03:54;12.07;;;4.18;;
19617;SDS011;9956;51.006;13.670;2023-04-25T13:08:55;6.43;;;4.38;;
19617;SDS011;9956;51.006;13.670;2023-04-25T13:13:56;13.73;;;5.07;;
19617;SDS011;9956;51.006;13.670;2023-04-25T13:18:56;11.80;;;4.85;;
19617;SDS011;9956;51.006;13.670;2023-04-25T13:23:58;10.90;;;5.00;;
19617;SDS011;9956;51.006;13.670;2023-04-25T13:28:58;10.23;;;5.00;;
19617;SDS011;9956;51.006;13.670;2023-04-25T13:34:00;10.07;;;4.22;;
19617;SDS011;9956;51.006;13.670;2023-04-25T13:39:01;7.30;;;4.50;;
19617;SDS011;9956;51.006;13.670;2023-04-25T13:44:01;14.30;;;4.75;;
19617;SDS011;9956;51.006;13.670;2023-04-25T13:49:01;9.82;;;4.40;;
19617;SDS011;9956;51.006;13.670;2023-04-25T13:54:02;13.95;;;5.65;;
19617;SDS011;9956;51.006;13.670;2023-04-25T13:59:03;12.70;;;5.50;;
19617;SDS011;9956;51.006;13.670;2023-04-25T14:04:03;9.95;;;4.53;;
19617;SDS011;9956;51.006;13.670;2023-04-25T14:09:04;11.57;;;4.95;;
19617;SDS011;9956;51.006;13.670;2023-04-25T14:14:13;11.55;;;4.95;;
19617;SDS011;9956;51.006;13.670;2023-04-25T14:19:16;9.43;;;4.00;;
19617;SDS011;9956;51.006;13.670;2023-04-25T14:24:17;9.45;;;4.47;;
19617;SDS011;9956;51.006;13.670;2023-04-25T14:29:18;11.70;;;4.90;;
19617;SDS011;9956;51.006;13.670;2023-04-25T14:34:19;12.98;;;4.78;;
19617;SDS011;9956;51.006;13.670;2023-04-25T14:39:20;9.63;;;4.13;;
19617;SDS011;9956;51.006;13.670;2023-04-25T14:44:21;11.98;;;4.68;;
19617;SDS011;9956;51.006;13.670;2023-04-25T14:49:21;10.95;;;4.22;;
19617;SDS011;9956;51.006;13.670;2023-04-25T14:54:22;9.35;;;4.15;;
19617;SDS011;9956;51.006;13.670;2023-04-25T14:59:22;8.80;;;4.00;;
19617;SDS011;9956;51.006;13.670;2023-04-25T15:04:24;12.55;;;4.53;;
19617;SDS011;9956;51.006;13.670;2023-04-25T15:09:24;11.18;;;4.25;;
19617;SDS011;9956;51.006;13.670;2023-04-25T15:20:52;7.50;;;3.70;;
19617;SDS011;9956;51.006;13.670;2023-04-25T15:25:53;7.47;;;3.95;;
19617;SDS011;9956;51.006;13.670;2023-04-25T15:30:54;7.53;;;3.10;;
19617;SDS011;9956;51.006;13.670;2023-04-25T15:35:55;8.75;;;3.20;;
19617;SDS011;9956;51.006;13.670;2023-04-25T15:40:57;11.80;;;4.57;;
19617;SDS011;9956;51.006;13.670;2023-04-25T15:45:58;7.82;;;4.03;;
19617;SDS011;9956;51.006;13.670;2023-04-25T15:50:59;7.43;;;3.47;;
19617;SDS011;9956;51.006;13.670;2023-04-25T15:56:00;8.40;;;3.08;;
19617;SDS011;9956;51.006;13.670;2023-04-25T16:01:01;7.03;;;3.20;;
19617;SDS011;9956;51.006;13.670;2023-04-25T16:06:02;6.22;;;2.83;;
19617;SDS011;9956;51.006;13.670;2023-04-25T16:11:03;5.97;;;2.58;;
19617;SDS011;9956;51.006;13.670;2023-04-25T16:16:04;7.47;;;3.00;;
19617;SDS011;9956;51.006;13.670;2023-04-25T16:21:05;8.90;;;2.92;;
19617;SDS011;9956;51.006;13.670;2023-04-25T16:26:05;11.05;;;2.90;;
19617;SDS011;9956;51.006;13.670;2023-04-25T16:31:10;9.82;;;3.03;;
19617;SDS011;9956;51.006;13.670;2023-04-25T16:36:11;9.88;;;3.25;;
19617;SDS011;9956;51.006;13.670;2023-04-25T16:41:12;7.00;;;3.00;;
19617;SDS011;9956;51.006;13.670;2023-04-25T16:46:12;6.47;;;2.10;;
19617;SDS011;9956;51.006;13.670;2023-04-25T16:51:16;7.95;;;2.20;;
19617;SDS011;9956;51.006;13.670;2023-04-25T16:56:16;6.75;;;2.00;;
19617;SDS011;9956;51.006;13.670;2023-04-25T17:01:17;8.32;;;2.10;;
19617;SDS011;9956;51.006;13.670;2023-04-25T17:06:19;4.50;;;1.85;;
19617;SDS011;9956;51.006;13.670;2023-04-25T17:11:20;5.15;;;1.85;;
19617;SDS011;9956;51.006;13.670;2023-04-25T17:16:20;5.55;;;1.90;;
19617;SDS011;9956;51.006;13.670;2023-04-25T17:21:24;4.55;;;2.00;;
19617;SDS011;9956;51.006;13.670;2023-04-25T17:26:24;3.58;;;1.92;;
19617;SDS011;9956;51.006;13.670;2023-04-25T17:31:25;9.25;;;4.57;;
19617;SDS011;9956;51.006;13.670;2023-04-25T17:36:26;7.40;;;3.30;;
19617;SDS011;9956;51.006;13.670;2023-04-25T17:41:26;6.38;;;2.28;;
19617;SDS011;9956;51.006;13.670;2023-04-25T17:46:27;9.23;;;2.83;;
19617;SDS011;9956;51.006;13.670;2023-04-25T17:51:32;6.43;;;2.28;;
19617;SDS011;9956;51.006;13.670;2023-04-25T17:56:35;4.63;;;2.50;;
19617;SDS011;9956;51.006;13.670;2023-04-25T18:01:36;6.55;;;2.50;;
19617;SDS011;9956;51.006;13.670;2023-04-25T18:06:37;6.50;;;3.10;;
19617;SDS011;9956;51.006;13.670;2023-04-25T18:11:38;6.75;;;2.85;;
19617;SDS011;9956;51.006;13.670;2023-04-25T18:16:48;7.38;;;2.90;;
19617;SDS011;9956;51.006;13.670;2023-04-25T18:21:51;7.22;;;2.72;;
19617;SDS011;9956;51.006;13.670;2023-04-25T18:26:54;5.80;;;2.83;;
19617;SDS011;9956;51.006;13.670;2023-04-25T18:31:55;5.63;;;2.97;;
19617;SDS011;9956;51.006;13.670;2023-04-25T18:36:56;5.40;;;2.50;;
19617;SDS011;9956;51.006;13.670;2023-04-25T18:41:57;4.95;;;2.53;;
19617;SDS011;9956;51.006;13.670;2023-04-25T18:46:57;8.50;;;3.05;;
19617;SDS011;9956;51.006;13.670;2023-04-25T18:51:58;5.47;;;2.45;;
19617;SDS011;9956;51.006;13.670;2023-04-25T18:56:58;4.57;;;2.40;;
19617;SDS011;9956;51.006;13.670;2023-04-25T19:02:00;8.45;;;2.70;;
19617;SDS011;9956;51.006;13.670;2023-04-25T19:07:00;7.70;;;2.85;;
19617;SDS011;9956;51.006;13.670;2023-04-25T19:12:01;7.80;;;2.65;;
19617;SDS011;9956;51.006;13.670;2023-04-25T19:17:02;4.95;;;2.42;;
19617;SDS011;9956;51.006;13.670;2023-04-25T19:22:03;8.15;;;3.03;;
19617;SDS011;9956;51.006;13.670;2023-04-25T19:27:03;8.70;;;3.33;;
19617;SDS011;9956;51.006;13.670;2023-04-25T19:32:04;6.70;;;4.22;;
19617;SDS011;9956;51.006;13.670;2023-04-25T19:37:05;6.90;;;3.00;;
19617;SDS011;9956;51.006;13.670;2023-04-25T19:42:06;8.10;;;3.80;;
19617;SDS011;9956;51.006;13.670;2023-04-25T19:47:06;4.43;;;2.42;;
19617;SDS011;9956;51.006;13.670;2023-04-25T19:52:07;4.43;;;2.90;;
19617;SDS011;9956;51.006;13.670;2023-04-25T19:57:13;5.53;;;4.22;;
19617;SDS011;9956;51.006;13.670;2023-04-25T20:02:13;7.15;;;2.92;;
19617;SDS011;9956;51.006;13.670;2023-04-25T20:07:15;3.90;;;2.45;;
19617;SDS011;9956;51.006;13.670;2023-04-25T20:12:15;9.50;;;2.83;;
19617;SDS011;9956;51.006;13.670;2023-04-25T20:17:17;5.85;;;2.85;;
19617;SDS011;9956;51.006;13.670;2023-04-25T20:22:17;7.35;;;3.40;;
19617;SDS011;9956;51.006;13.670;2023-04-25T20:27:17;8.40;;;3.22;;
19617;SDS011;9956;51.006;13.670;2023-04-25T20:32:18;5.00;;;3.30;;
19617;SDS011;9956;51.006;13.670;2023-04-25T20:37:18;6.50;;;3.53;;
19617;SDS011;9956;51.006;13.670;2023-04-25T20:42:19;4.57;;;3.10;;
19617;SDS011;9956;51.006;13.670;2023-04-25T20:47:19;4.63;;;2.92;;
19617;SDS011;9956;51.006;13.670;2023-04-25T20:52:20;4.88;;;2.70;;
19617;SDS011;9956;51.006;13.670;2023-04-25T20:57:21;6.40;;;2.75;;
19617;SDS011;9956;51.006;13.670;2023-04-25T21:02:22;6.90;;;2.30;;
19617;SDS011;9956;51.006;13.670;2023-04-25T21:07:23;6.40;;;2.83;;
19617;SDS011;9956;51.006;13.670;2023-04-25T21:12:23;5.57;;;2.58;;
19617;SDS011;9956;51.006;13.670;2023-04-25T21:17:24;6.25;;;2.60;;
19617;SDS011;9956;51.006;13.670;2023-04-25T21:22:24;4.65;;;2.30;;
19617;SDS011;9956;51.006;13.670;2023-04-25T21:27:25;6.28;;;2.40;;
19617;SDS011;9956;51.006;13.670;2023-04-25T21:32:25;5.40;;;2.10;;
19617;SDS011;9956;51.006;13.670;2023-04-25T21:37:26;3.97;;;2.00;;
19617;SDS011;9956;51.006;13.670;2023-04-25T21:42:26;5.72;;;2.17;;
19617;SDS011;9956;51.006;13.670;2023-04-25T21:47:27;3.22;;;1.95;;
19617;SDS011;9956;51.006;13.670;2023-04-25T21:52:28;4.10;;;1.70;;
19617;SDS011;9956;51.006;13.670;2023-04-25T21:57:28;7.40;;;1.92;;
19617;SDS011;9956;51.006;13.670;2023-04-25T22:02:31;6.50;;;2.25;;
19617;SDS011;9956;51.006;13.670;2023-04-25T22:08:32;4.95;;;1.88;;
19617;SDS011;9956;51.006;13.670;2023-04-25T22:13:32;3.22;;;1.85;;
19617;SDS011;9956;51.006;13.670;2023-04-25T22:18:33;5.70;;;1.80;;
19617;SDS011;9956;51.006;13.670;2023-04-25T22:23:33;3.45;;;1.98;;
19617;SDS011;9956;51.006;13.670;2023-04-25T22:28:34;5.57;;;2.28;;
19617;SDS011;9956;51.006;13.670;2023-04-25T22:33:34;4.05;;;2.85;;
19617;SDS011;9956;51.006;13.670;2023-04-25T22:38:35;5.22;;;3.10;;
19617;SDS011;9956;51.006;13.670;2023-04-25T22:43:37;5.72;;;2.72;;
19617;SDS011;9956;51.006;13.670;2023-04-25T22:48:41;5.85;;;2.72;;
19617;SDS011;9956;51.006;13.670;2023-04-25T22:53:43;4.82;;;2.95;;
19617;SDS011;9956;51.006;13.670;2023-04-25T22:58:44;5.18;;;3.00;;
19617;SDS011;9956;51.006;13.670;2023-04-25T23:03:45;4.75;;;3.00;;
19617;SDS011;9956;51.006;13.670;2023-04-25T23:08:45;7.20;;;3.25;;
19617;SDS011;9956;51.006;13.670;2023-04-25T23:13:46;6.13;;;3.05;;
19617;SDS011;9956;51.006;13.670;2023-04-25T23:18:46;8.20;;;3.67;;
19617;SDS011;9956;51.006;13.670;2023-04-25T23:23:47;3.58;;;2.67;;
19617;SDS011;9956;51.006;13.670;2023-04-25T23:28:47;4.57;;;2.92;;
19617;SDS011;9956;51.006;13.670;2023-04-25T23:33:48;6.18;;;2.72;;
19617;SDS011;9956;51.006;13.670;2023-04-25T23:38:48;9.07;;;3.55;;
19617;SDS011;9956;51.006;13.670;2023-04-25T23:43:49;5.68;;;3.00;;
19617;SDS011;9956;51.006;13.670;2023-04-25T23:48:49;4.38;;;2.72;;
19617;SDS011;9956;51.006;13.670;2023-04-25T23:53:50;6.82;;;2.70;;
19617;SDS011;9956;51.006;13.670;2023-04-25T23:58:50;5.18;;;3.10;;
